createdAt,value
2019-01-20T00:00:23.961Z,13.03
2019-01-20T00:03:29.102Z,10.27
2019-01-20T00:06:34.149Z,11.97
2019-01-20T00:09:39.163Z,11.27
2019-01-20T00:12:44.373Z,11.17
2019-01-20T00:15:50.459Z,12.63
2019-01-20T00:18:55.533Z,13.43
2019-01-20T00:22:00.575Z,12.43
2019-01-20T00:25:06.449Z,11.17
2019-01-20T00:28:11.587Z,11.07
2019-01-20T00:31:16.606Z,10.33
2019-01-20T00:34:21.668Z,12.70
2019-01-20T00:37:26.966Z,11.60
2019-01-20T00:40:31.852Z,11.10
2019-01-20T00:43:37.025Z,11.67
2019-01-20T00:47:01.755Z,11.73
2019-01-20T00:50:07.543Z,11.30
2019-01-20T00:53:12.636Z,11.47
2019-01-20T00:56:17.622Z,11.77
2019-01-20T00:59:22.773Z,11.73
2019-01-20T01:02:27.760Z,12.37
2019-01-20T01:05:32.849Z,12.30
2019-01-20T01:08:37.825Z,10.20
2019-01-20T01:11:42.917Z,10.90
2019-01-20T01:14:47.925Z,12.00
2019-01-20T01:17:53.025Z,13.70
2019-01-20T01:20:57.982Z,13.03
2019-01-20T01:24:03.094Z,13.43
2019-01-20T01:27:08.145Z,14.07
2019-01-20T01:30:18.744Z,18.90
2019-01-20T01:33:24.081Z,14.90
2019-01-20T01:36:29.077Z,15.27
2019-01-20T01:39:35.167Z,15.30
2019-01-20T01:42:40.018Z,12.80
2019-01-20T01:45:45.106Z,13.00
2019-01-20T01:48:50.378Z,11.27
2019-01-20T01:51:55.322Z,12.10
2019-01-20T01:55:00.209Z,11.60
2019-01-20T01:58:05.223Z,13.90
2019-01-20T02:01:10.201Z,15.40
2019-01-20T02:04:15.257Z,13.63
2019-01-20T02:07:20.233Z,18.27
2019-01-20T02:10:25.148Z,17.43
2019-01-20T02:13:29.998Z,19.40
2019-01-20T02:16:53.948Z,27.10
2019-01-20T02:19:59.100Z,45.83
2019-01-20T02:23:04.089Z,20.50
2019-01-20T02:26:09.168Z,17.93
2019-01-20T02:29:14.426Z,14.73
2019-01-20T02:32:19.470Z,16.03
2019-01-20T02:35:24.745Z,13.00
2019-01-20T02:38:29.643Z,13.30
2019-01-20T02:41:34.821Z,12.37
2019-01-20T02:44:39.723Z,12.63
2019-01-20T02:47:44.705Z,12.67
2019-01-20T02:50:49.510Z,13.50
2019-01-20T02:53:54.569Z,12.30
2019-01-20T02:56:59.654Z,14.43
2019-01-20T03:00:06.548Z,12.63
2019-01-20T03:03:11.621Z,13.70
2019-01-20T03:06:16.905Z,14.30
2019-01-20T03:09:21.826Z,13.33
2019-01-20T03:12:26.828Z,13.73
2019-01-20T03:15:31.937Z,12.67
2019-01-20T03:18:37.345Z,15.43
2019-01-20T03:21:42.360Z,14.00
2019-01-20T03:24:47.594Z,13.20
2019-01-20T03:27:52.516Z,13.13
2019-01-20T03:30:57.695Z,13.83
2019-01-20T03:34:02.637Z,13.57
2019-01-20T03:37:07.745Z,11.47
2019-01-20T03:40:14.937Z,12.97
2019-01-20T03:43:19.842Z,13.30
2019-01-20T03:46:24.786Z,13.33
2019-01-20T03:49:29.946Z,14.00
2019-01-20T03:52:35.033Z,13.40
2019-01-20T03:55:40.047Z,13.47
2019-01-20T03:58:45.086Z,15.70
2019-01-20T04:01:50.203Z,15.20
2019-01-20T04:04:55.225Z,14.10
2019-01-20T04:08:00.122Z,15.03
2019-01-20T04:11:05.416Z,15.07
2019-01-20T04:14:10.677Z,15.03
2019-01-20T04:17:15.616Z,14.97
2019-01-20T04:20:20.705Z,17.83
2019-01-20T04:23:25.612Z,16.63
2019-01-20T04:26:30.540Z,15.53
2019-01-20T04:29:35.462Z,15.50
2019-01-20T04:32:40.532Z,15.00
2019-01-20T04:35:45.634Z,15.23
2019-01-20T04:38:50.615Z,16.07
2019-01-20T04:41:56.312Z,15.43
2019-01-20T04:45:01.295Z,15.47
2019-01-20T04:48:06.593Z,15.80
2019-01-20T04:51:11.594Z,15.43
2019-01-20T04:54:16.686Z,16.23
2019-01-20T04:57:22.630Z,14.97
2019-01-20T05:00:28.577Z,15.87
2019-01-20T05:03:33.548Z,15.90
2019-01-20T05:06:38.525Z,16.63
2019-01-20T05:09:43.649Z,15.30
2019-01-20T05:12:48.586Z,14.70
2019-01-20T05:15:53.457Z,12.90
2019-01-20T05:18:58.425Z,16.80
2019-01-20T05:22:03.299Z,17.20
2019-01-20T05:25:09.148Z,14.90
2019-01-20T05:28:14.088Z,18.33
2019-01-20T05:31:19.076Z,16.20
2019-01-20T05:34:24.194Z,16.67
2019-01-20T05:37:29.048Z,15.93
2019-01-20T05:40:34.253Z,15.77
2019-01-20T05:43:39.285Z,15.53
2019-01-20T05:46:44.662Z,15.80
2019-01-20T05:49:49.690Z,15.07
2019-01-20T05:52:55.018Z,17.57
2019-01-20T05:56:00.026Z,15.13
2019-01-20T05:59:05.134Z,18.13
2019-01-20T06:02:10.233Z,17.00
2019-01-20T06:05:15.548Z,17.40
2019-01-20T06:08:20.600Z,16.93
2019-01-20T06:11:28.814Z,17.57
2019-01-20T06:14:33.881Z,16.27
2019-01-20T06:17:38.703Z,11.30
2019-01-20T06:20:43.657Z,11.67
2019-01-20T06:23:48.518Z,14.67
2019-01-20T06:26:53.699Z,13.00
2019-01-20T06:29:58.944Z,10.63
2019-01-20T06:33:03.948Z,10.93
2019-01-20T06:36:08.954Z,9.57
2019-01-20T06:39:14.075Z,11.17
2019-01-20T06:42:19.318Z,9.67
2019-01-20T06:45:24.346Z,9.77
2019-01-20T06:48:29.663Z,11.27
2019-01-20T06:51:34.810Z,9.53
2019-01-20T06:54:39.832Z,11.27
2019-01-20T06:57:44.827Z,10.47
2019-01-20T07:00:49.785Z,9.87
2019-01-20T07:03:54.770Z,9.53
2019-01-20T07:06:59.781Z,11.33
2019-01-20T07:10:06.318Z,10.43
2019-01-20T07:13:11.474Z,9.87
2019-01-20T07:16:16.336Z,9.73
2019-01-20T07:19:21.282Z,10.10
2019-01-20T07:22:26.270Z,10.30
2019-01-20T07:25:31.404Z,9.73
2019-01-20T07:28:36.325Z,10.37
2019-01-20T07:31:41.359Z,9.47
2019-01-20T07:34:46.350Z,11.00
2019-01-20T07:37:51.479Z,9.23
2019-01-20T07:40:56.723Z,9.83
2019-01-20T07:44:01.572Z,8.80
2019-01-20T07:47:06.549Z,8.93
2019-01-20T07:50:31.897Z,10.60
2019-01-20T07:53:36.844Z,11.17
2019-01-20T07:56:41.880Z,10.73
2019-01-20T07:59:47.948Z,10.47
2019-01-20T08:02:53.151Z,10.10
2019-01-20T08:05:58.065Z,10.93
2019-01-20T08:09:03.275Z,10.87
2019-01-20T08:12:08.412Z,10.47
2019-01-20T08:15:14.197Z,10.60
2019-01-20T08:18:38.121Z,10.00
2019-01-20T08:21:43.135Z,10.43
2019-01-20T08:24:48.016Z,10.20
2019-01-20T08:27:53.562Z,10.17
2019-01-20T08:30:58.944Z,10.70
2019-01-20T08:34:04.047Z,9.30
2019-01-20T08:37:08.925Z,10.50
2019-01-20T08:40:16.323Z,20.23
2019-01-20T08:43:21.380Z,10.70
2019-01-20T08:46:44.196Z,12.43
2019-01-20T08:49:49.519Z,12.03
2019-01-20T08:52:54.767Z,11.43
2019-01-20T08:55:59.728Z,10.63
2019-01-20T08:59:05.152Z,11.20
2019-01-20T09:02:10.211Z,10.73
2019-01-20T09:05:16.158Z,11.50
2019-01-20T09:08:21.022Z,12.00
2019-01-20T09:11:25.931Z,11.23
2019-01-20T09:14:30.986Z,9.50
2019-01-20T09:17:36.095Z,11.27
2019-01-20T09:20:41.188Z,11.10
2019-01-20T09:23:46.104Z,12.27
2019-01-20T09:26:51.072Z,10.13
2019-01-20T09:29:56.121Z,10.80
2019-01-20T09:33:01.217Z,12.13
2019-01-20T09:36:06.177Z,10.57
2019-01-20T09:39:14.924Z,10.00
2019-01-20T09:42:20.339Z,11.20
2019-01-20T09:45:28.969Z,11.50
2019-01-20T09:48:34.125Z,10.73
2019-01-20T09:51:41.700Z,12.60
2019-01-20T09:54:46.812Z,11.67
2019-01-20T09:57:51.738Z,12.00
2019-01-20T10:00:56.739Z,12.20
2019-01-20T10:04:01.799Z,11.57
2019-01-20T10:07:06.887Z,10.73
2019-01-20T10:10:13.857Z,9.93
2019-01-20T10:13:18.947Z,11.27
2019-01-20T10:16:26.093Z,10.90
2019-01-20T10:19:30.980Z,10.17
2019-01-20T10:22:36.116Z,10.60
2019-01-20T10:25:42.090Z,10.33
2019-01-20T10:28:47.280Z,11.43
2019-01-20T10:31:52.390Z,10.93
2019-01-20T10:34:59.367Z,10.83
2019-01-20T10:38:06.129Z,10.40
2019-01-20T10:41:11.151Z,10.90
2019-01-20T10:44:16.157Z,11.83
2019-01-20T10:47:21.193Z,14.23
2019-01-20T10:50:26.528Z,12.53
2019-01-20T10:53:31.573Z,12.87
2019-01-20T10:56:36.549Z,11.10
2019-01-20T10:59:41.753Z,10.83
2019-01-20T11:02:46.690Z,11.57
2019-01-20T11:05:51.581Z,11.73
2019-01-20T11:08:56.896Z,14.93
2019-01-20T11:12:02.132Z,11.90
2019-01-20T11:15:08.361Z,11.70
2019-01-20T11:18:13.372Z,12.37
2019-01-20T11:21:18.527Z,13.10
2019-01-20T11:24:23.683Z,11.77
2019-01-20T11:27:28.880Z,21.00
2019-01-20T11:30:35.639Z,15.97
2019-01-20T11:33:41.300Z,24.70
2019-01-20T11:36:46.279Z,13.70
2019-01-20T11:39:51.418Z,17.37
2019-01-20T11:42:56.588Z,14.60
2019-01-20T11:46:01.693Z,13.27
2019-01-20T11:49:06.832Z,13.13
2019-01-20T11:52:11.912Z,12.63
2019-01-20T11:55:18.145Z,16.53
2019-01-20T11:58:23.385Z,11.93
2019-01-20T12:01:28.197Z,12.20
2019-01-20T12:04:33.223Z,12.33
2019-01-20T12:07:38.155Z,13.20
2019-01-20T12:10:43.189Z,14.13
2019-01-20T12:13:48.233Z,16.13
2019-01-20T12:16:53.601Z,16.13
2019-01-20T12:19:58.440Z,14.30
2019-01-20T12:23:03.438Z,15.30
2019-01-20T12:26:08.482Z,14.77
2019-01-20T12:29:13.782Z,14.40
2019-01-20T12:32:18.717Z,13.60
2019-01-20T12:35:23.684Z,13.80
2019-01-20T12:38:28.666Z,13.93
2019-01-20T12:41:33.626Z,15.33
2019-01-20T12:44:38.677Z,16.70
2019-01-20T12:47:43.689Z,15.50
2019-01-20T12:50:48.654Z,15.50
2019-01-20T12:53:53.689Z,14.90
2019-01-20T12:56:59.035Z,15.53
2019-01-20T13:00:04.960Z,15.47
2019-01-20T13:03:10.301Z,15.27
2019-01-20T13:06:15.232Z,15.67
2019-01-20T13:09:20.405Z,13.70
2019-01-20T13:12:25.317Z,14.63
2019-01-20T13:15:30.493Z,15.70
2019-01-20T13:18:35.785Z,14.93
2019-01-20T13:21:40.783Z,16.53
2019-01-20T13:24:45.985Z,15.10
2019-01-20T13:27:51.251Z,15.33
2019-01-20T13:30:56.281Z,14.77
2019-01-20T13:34:01.367Z,14.50
2019-01-20T13:37:06.395Z,14.30
2019-01-20T13:40:15.728Z,14.40
2019-01-20T13:43:20.996Z,15.43
2019-01-20T13:46:26.005Z,14.50
2019-01-20T13:49:31.131Z,15.30
2019-01-20T13:52:36.595Z,14.00
2019-01-20T13:55:41.581Z,15.17
2019-01-20T13:58:46.674Z,14.67
2019-01-20T14:01:51.854Z,15.10
2019-01-20T14:04:56.876Z,13.87
2019-01-20T14:08:02.097Z,13.70
2019-01-20T14:11:07.129Z,16.00
2019-01-20T14:14:12.215Z,13.67
2019-01-20T14:17:17.328Z,14.33
2019-01-20T14:20:22.674Z,13.50
2019-01-20T14:23:27.748Z,12.63
2019-01-20T14:26:32.831Z,12.13
2019-01-20T14:29:37.930Z,15.07
2019-01-20T14:32:43.069Z,12.57
2019-01-20T14:35:48.225Z,12.30
2019-01-20T14:38:53.096Z,12.63
2019-01-20T14:41:57.793Z,12.00
2019-01-20T14:45:02.569Z,12.73
2019-01-20T14:48:07.439Z,13.60
2019-01-20T14:51:12.637Z,14.00
2019-01-20T14:54:17.355Z,12.50
2019-01-20T14:57:22.538Z,13.17
2019-01-20T15:00:30.424Z,13.97
2019-01-20T15:03:35.279Z,12.00
2019-01-20T15:06:40.312Z,12.57
2019-01-20T15:09:45.107Z,12.00
2019-01-20T15:12:50.434Z,12.63
2019-01-20T15:15:55.682Z,12.80
2019-01-20T15:19:00.798Z,12.80
2019-01-20T15:22:05.982Z,13.00
2019-01-20T15:25:12.395Z,13.30
2019-01-20T15:28:20.646Z,13.57
2019-01-20T15:31:25.724Z,14.40
2019-01-20T15:34:31.066Z,14.60
2019-01-20T15:37:36.487Z,13.10
2019-01-20T15:40:41.716Z,12.90
2019-01-20T15:43:47.060Z,13.20
2019-01-20T15:46:51.956Z,12.80
2019-01-20T15:49:56.936Z,12.27
2019-01-20T15:53:02.153Z,16.97
2019-01-20T15:56:07.464Z,13.93
2019-01-20T15:59:31.226Z,12.63
2019-01-20T16:02:36.382Z,12.83
2019-01-20T16:05:41.650Z,14.17
2019-01-20T16:08:46.703Z,15.13
2019-01-20T16:11:51.733Z,14.27
2019-01-20T16:14:56.918Z,14.57
2019-01-20T16:18:01.886Z,14.27
2019-01-20T16:21:06.936Z,14.90
2019-01-20T16:24:11.848Z,15.67
2019-01-20T16:27:17.606Z,14.43
2019-01-20T16:30:28.124Z,19.40
2019-01-20T16:33:33.135Z,21.60
2019-01-20T16:36:39.123Z,27.50
2019-01-20T16:39:45.898Z,24.40
2019-01-20T16:42:51.093Z,20.67
2019-01-20T16:45:56.179Z,20.83
2019-01-20T16:49:01.592Z,20.17
2019-01-20T16:52:06.746Z,20.50
2019-01-20T16:55:12.189Z,19.30
2019-01-20T16:58:17.120Z,18.90
2019-01-20T17:01:22.244Z,18.60
2019-01-20T17:04:27.142Z,18.87
2019-01-20T17:07:32.085Z,21.17
2019-01-20T17:10:39.264Z,21.87
2019-01-20T17:13:44.266Z,21.03
2019-01-20T17:16:49.441Z,21.67
2019-01-20T17:19:54.968Z,23.40
2019-01-20T17:22:59.922Z,24.33
2019-01-20T17:26:04.962Z,22.70
2019-01-20T17:29:09.978Z,26.80
2019-01-20T17:32:14.843Z,27.47
2019-01-20T17:35:20.182Z,27.47
2019-01-20T17:38:25.186Z,27.10
2019-01-20T17:41:30.077Z,25.63
2019-01-20T17:44:35.263Z,25.60
2019-01-20T17:47:40.389Z,27.77
2019-01-20T17:50:46.364Z,26.83
2019-01-20T17:53:51.681Z,27.00
2019-01-20T17:56:56.888Z,26.13
2019-01-20T18:00:02.114Z,25.90
2019-01-20T18:03:29.173Z,26.07
2019-01-20T18:06:34.294Z,28.83
2019-01-20T18:09:39.277Z,26.33
2019-01-20T18:12:44.343Z,23.43
2019-01-20T18:15:54.412Z,22.80
2019-01-20T18:18:56.415Z,24.37
2019-01-20T18:22:01.549Z,24.33
2019-01-20T18:25:08.502Z,24.30
2019-01-20T18:28:13.617Z,26.37
2019-01-20T18:31:18.828Z,24.20
2019-01-20T18:34:23.880Z,24.83
2019-01-20T18:37:29.121Z,26.17
2019-01-20T18:40:33.946Z,28.40
2019-01-20T18:43:38.920Z,25.77
2019-01-20T18:46:43.629Z,25.30
2019-01-20T18:49:48.479Z,25.53
2019-01-20T18:52:53.572Z,26.23
2019-01-20T18:55:58.673Z,26.40
2019-01-20T18:59:03.760Z,26.70
2019-01-20T19:02:08.979Z,25.20
2019-01-20T19:05:15.182Z,23.77
2019-01-20T19:08:20.138Z,23.73
2019-01-20T19:11:25.166Z,25.53
2019-01-20T19:14:30.373Z,24.43
2019-01-20T19:17:35.410Z,25.17
2019-01-20T19:20:40.882Z,23.37
2019-01-20T19:23:46.188Z,23.77
2019-01-20T19:26:51.385Z,24.57
2019-01-20T19:29:56.408Z,24.57
2019-01-20T19:33:01.695Z,23.80
2019-01-20T19:36:07.036Z,23.83
2019-01-20T19:39:12.373Z,22.90
2019-01-20T19:42:17.455Z,30.10
2019-01-20T19:45:22.808Z,27.33
2019-01-20T19:48:27.720Z,30.70
2019-01-20T19:51:32.722Z,27.60
2019-01-20T19:54:37.795Z,26.57
2019-01-20T19:57:43.048Z,27.83
2019-01-20T20:00:48.049Z,27.87
2019-01-20T20:03:53.224Z,27.77
2019-01-20T20:06:58.402Z,27.43
2019-01-20T20:10:03.501Z,27.70
2019-01-20T20:13:08.476Z,30.07
2019-01-20T20:16:13.593Z,24.40
2019-01-20T20:19:18.678Z,26.07
2019-01-20T20:22:23.616Z,25.77
2019-01-20T20:25:28.701Z,25.50
2019-01-20T20:28:33.959Z,25.77
2019-01-20T20:31:39.045Z,25.27
2019-01-20T20:34:44.332Z,23.80
2019-01-20T20:37:49.681Z,24.50
2019-01-20T20:40:55.309Z,26.17
2019-01-20T20:44:00.529Z,25.17
2019-01-20T20:47:05.996Z,25.20
2019-01-20T20:50:12.310Z,25.20
2019-01-20T20:53:17.432Z,24.93
2019-01-20T20:56:22.495Z,23.60
2019-01-20T20:59:27.542Z,27.10
2019-01-20T21:02:32.636Z,25.87
2019-01-20T21:05:37.729Z,27.10
2019-01-20T21:08:42.641Z,27.70
2019-01-20T21:11:47.667Z,26.30
2019-01-20T21:14:52.908Z,26.57
2019-01-20T21:17:57.932Z,25.30
2019-01-20T21:21:03.001Z,26.73
2019-01-20T21:24:07.890Z,25.00
2019-01-20T21:27:13.092Z,26.53
2019-01-20T21:30:20.334Z,27.17
2019-01-20T21:33:25.464Z,26.27
2019-01-20T21:36:30.481Z,26.17
2019-01-20T21:39:36.203Z,25.90
2019-01-20T21:42:41.244Z,26.57
2019-01-20T21:45:46.524Z,27.97
2019-01-20T21:48:51.944Z,27.83
2019-01-20T21:51:57.239Z,27.53
2019-01-20T21:55:02.901Z,26.83
2019-01-20T21:58:11.844Z,26.93
2019-01-20T22:01:17.353Z,26.50
2019-01-20T22:04:22.519Z,27.27
2019-01-20T22:07:27.415Z,27.97
2019-01-20T22:10:32.656Z,28.30
2019-01-20T22:13:42.004Z,26.20
2019-01-20T22:16:52.696Z,26.47
2019-01-20T22:19:54.528Z,26.00
2019-01-20T22:22:59.448Z,27.70
2019-01-20T22:26:04.740Z,25.50
2019-01-20T22:29:10.137Z,26.67
2019-01-20T22:32:15.035Z,30.90
2019-01-20T22:35:22.700Z,29.77
2019-01-20T22:38:27.817Z,30.60
2019-01-20T22:41:32.822Z,26.87
2019-01-20T22:44:38.065Z,29.80
2019-01-20T22:47:43.162Z,27.20
2019-01-20T22:50:48.591Z,25.13
2019-01-20T22:53:53.540Z,28.17
2019-01-20T22:56:58.596Z,27.27
2019-01-20T23:00:05.489Z,26.30
2019-01-20T23:03:10.676Z,24.87
2019-01-20T23:06:15.668Z,26.40
2019-01-20T23:09:20.591Z,25.10
2019-01-20T23:12:25.534Z,26.13
2019-01-20T23:15:30.731Z,25.37
2019-01-20T23:18:36.718Z,26.07
2019-01-20T23:21:41.821Z,26.70
2019-01-20T23:24:47.021Z,27.30
2019-01-20T23:27:52.577Z,27.53
2019-01-20T23:30:57.981Z,27.20
2019-01-20T23:34:02.903Z,25.87
2019-01-20T23:37:08.027Z,26.17
2019-01-20T23:40:13.110Z,27.30
2019-01-20T23:43:18.325Z,26.40
2019-01-20T23:46:23.370Z,25.90
2019-01-20T23:49:28.280Z,25.07
2019-01-20T23:52:33.653Z,24.90
2019-01-20T23:55:38.601Z,25.77
2019-01-20T23:58:43.642Z,24.13
